createdAt,value
2022-08-03T00:02:19.795Z,84.10
2022-08-03T00:04:47.447Z,84.30
2022-08-03T00:07:15.083Z,84.60
2022-08-03T00:09:42.474Z,84.70
2022-08-03T00:12:10.089Z,84.80
2022-08-03T00:14:37.492Z,85.00
2022-08-03T00:17:04.698Z,85.20
2022-08-03T00:19:31.950Z,85.30
2022-08-03T00:21:59.149Z,85.40
2022-08-03T00:24:26.375Z,85.60
2022-08-03T00:26:53.669Z,85.80
2022-08-03T00:29:20.869Z,85.80
2022-08-03T00:31:52.440Z,85.90
2022-08-03T00:34:36.553Z,86.10
2022-08-03T00:37:11.892Z,86.30
2022-08-03T00:39:39.192Z,86.40
2022-08-03T00:42:06.909Z,86.50
2022-08-03T00:44:40.814Z,86.70
2022-08-03T00:47:10.246Z,86.90
2022-08-03T00:49:39.029Z,87.10
2022-08-03T00:52:11.511Z,87.40
2022-08-03T00:54:39.420Z,87.40
2022-08-03T00:57:07.909Z,87.70
2022-08-03T00:59:35.317Z,88.00
2022-08-03T01:02:02.675Z,88.40
2022-08-03T01:04:29.923Z,88.50
2022-08-03T01:07:13.675Z,88.60
2022-08-03T01:09:52.818Z,89.00
2022-08-03T01:12:37.180Z,89.10
2022-08-03T01:15:20.387Z,89.40
2022-08-03T01:17:53.859Z,89.80
2022-08-03T01:20:24.096Z,90.00
2022-08-03T01:23:03.076Z,90.20
2022-08-03T01:25:56.489Z,90.30
2022-08-03T01:28:50.248Z,90.40
2022-08-03T01:31:23.839Z,90.50
2022-08-03T01:33:57.278Z,90.60
2022-08-03T01:36:29.861Z,90.60
2022-08-03T01:39:02.058Z,90.80
2022-08-03T01:41:35.198Z,90.90
2022-08-03T01:44:29.239Z,91.00
2022-08-03T01:46:54.357Z,91.10
2022-08-03T01:49:22.426Z,91.20
2022-08-03T01:52:03.430Z,91.30
2022-08-03T01:54:37.625Z,91.40
2022-08-03T01:57:05.862Z,91.60
2022-08-03T01:59:35.568Z,91.70
2022-08-03T02:02:28.009Z,91.90
2022-08-03T02:04:55.630Z,92.00
2022-08-03T02:07:24.707Z,92.10
2022-08-03T02:09:54.149Z,92.30
2022-08-03T02:12:24.880Z,92.40
2022-08-03T02:14:52.761Z,92.70
2022-08-03T02:17:38.760Z,92.80
2022-08-03T02:20:10.838Z,92.90
2022-08-03T02:22:42.773Z,93.00
2022-08-03T02:25:12.195Z,93.20
2022-08-03T02:28:10.392Z,93.30
2022-08-03T02:30:40.939Z,93.60
2022-08-03T02:33:12.724Z,93.70
2022-08-03T02:35:41.909Z,93.90
2022-08-03T02:38:11.298Z,94.10
2022-08-03T02:40:40.567Z,94.30
2022-08-03T02:43:17.837Z,94.90
2022-08-03T02:45:48.099Z,94.70
2022-08-03T02:48:23.167Z,94.90
2022-08-03T02:50:54.725Z,95.10
2022-08-03T02:53:23.863Z,95.20
2022-08-03T02:55:52.451Z,95.30
2022-08-03T02:58:24.019Z,95.50
2022-08-03T03:00:52.134Z,95.60
2022-08-03T03:03:20.814Z,95.80
2022-08-03T03:05:51.792Z,96.00
2022-08-03T03:08:26.163Z,96.20
2022-08-03T03:10:58.359Z,96.30
2022-08-03T03:13:26.909Z,96.40
2022-08-03T03:15:56.511Z,96.50
2022-08-03T03:18:24.936Z,96.60
2022-08-03T03:20:53.905Z,96.70
2022-08-03T03:23:26.714Z,96.90
2022-08-03T03:25:56.022Z,97.10
2022-08-03T03:28:24.846Z,97.10
2022-08-03T03:30:53.295Z,97.20
2022-08-03T03:33:22.545Z,97.40
2022-08-03T03:35:51.745Z,97.50
2022-08-03T03:38:20.131Z,97.50
2022-08-03T03:40:49.118Z,97.60
2022-08-03T03:43:18.446Z,97.50
2022-08-03T03:45:47.332Z,97.60
2022-08-03T03:48:15.032Z,97.70
2022-08-03T03:50:43.774Z,97.70
2022-08-03T03:53:12.523Z,97.80
2022-08-03T03:56:02.114Z,97.90
2022-08-03T03:58:28.632Z,98.00
2022-08-03T04:00:56.053Z,98.00
2022-08-03T04:03:23.432Z,98.10
2022-08-03T04:06:09.868Z,98.00
2022-08-03T04:08:55.731Z,98.00
2022-08-03T04:11:51.663Z,98.00
2022-08-03T04:14:26.640Z,98.00
2022-08-03T04:16:58.186Z,97.70
2022-08-03T04:19:32.263Z,97.60
2022-08-03T04:22:03.043Z,97.60
2022-08-03T04:24:35.608Z,97.50
2022-08-03T04:27:06.828Z,97.50
2022-08-03T04:29:38.696Z,97.50
2022-08-03T04:32:16.846Z,97.40
2022-08-03T04:34:44.569Z,97.40
2022-08-03T04:37:14.920Z,97.30
2022-08-03T04:39:42.755Z,97.20
2022-08-03T04:42:12.729Z,97.30
2022-08-03T04:44:42.557Z,97.40
2022-08-03T04:47:09.866Z,97.40
2022-08-03T04:49:38.399Z,97.30
2022-08-03T04:52:07.961Z,97.30
2022-08-03T04:54:50.645Z,97.40
2022-08-03T04:57:22.914Z,97.50
2022-08-03T05:00:01.026Z,97.50
2022-08-03T05:02:29.378Z,97.60
2022-08-03T05:04:56.689Z,97.70
2022-08-03T05:07:24.799Z,97.80
2022-08-03T05:10:01.610Z,97.80
2022-08-03T05:12:33.129Z,97.90
2022-08-03T05:15:01.693Z,98.00
2022-08-03T05:17:29.163Z,98.20
2022-08-03T05:19:56.614Z,98.10
2022-08-03T05:22:24.300Z,98.10
2022-08-03T05:24:51.523Z,98.10
2022-08-03T05:27:21.728Z,98.10
2022-08-03T05:29:50.740Z,98.00
2022-08-03T05:32:18.950Z,98.00
2022-08-03T05:34:46.386Z,98.00
2022-08-03T05:37:13.618Z,97.90
2022-08-03T05:39:40.917Z,97.90
2022-08-03T05:42:08.145Z,97.90
2022-08-03T05:44:38.599Z,97.90
2022-08-03T05:47:06.382Z,97.80
2022-08-03T05:49:33.834Z,97.70
2022-08-03T05:52:22.415Z,97.70
2022-08-03T05:54:56.819Z,97.70
2022-08-03T05:57:27.781Z,97.60
2022-08-03T05:59:58.315Z,97.70
2022-08-03T06:02:27.138Z,97.70
2022-08-03T06:04:54.597Z,97.70
2022-08-03T06:07:22.008Z,97.80
2022-08-03T06:10:33.970Z,97.80
2022-08-03T06:12:36.784Z,97.90
2022-08-03T06:15:05.086Z,97.90
2022-08-03T06:17:37.170Z,98.00
2022-08-03T06:20:06.130Z,97.90
2022-08-03T06:22:33.594Z,97.80
2022-08-03T06:25:05.040Z,97.90
2022-08-03T06:27:38.045Z,97.80
2022-08-03T06:30:06.464Z,97.80
2022-08-03T06:32:33.776Z,97.50
2022-08-03T06:35:01.217Z,97.40
2022-08-03T06:37:28.833Z,97.40
2022-08-03T06:39:56.158Z,97.30
2022-08-03T06:42:23.388Z,97.20
2022-08-03T06:44:52.564Z,97.20
2022-08-03T06:47:19.807Z,97.20
2022-08-03T06:50:12.390Z,97.10
2022-08-03T06:52:38.156Z,97.00
2022-08-03T06:55:06.895Z,96.90
2022-08-03T06:57:34.120Z,96.90
2022-08-03T07:00:08.499Z,96.70
2022-08-03T07:02:39.720Z,96.50
2022-08-03T07:05:08.232Z,96.40
2022-08-03T07:07:36.110Z,96.30
2022-08-03T07:10:05.253Z,96.30
2022-08-03T07:12:33.840Z,96.30
2022-08-03T07:15:03.288Z,96.20
2022-08-03T07:17:35.896Z,96.20
2022-08-03T07:20:07.225Z,96.10
2022-08-03T07:22:35.264Z,96.10
2022-08-03T07:25:03.081Z,95.90
2022-08-03T07:27:30.834Z,95.60
2022-08-03T07:29:59.344Z,95.30
2022-08-03T07:32:28.373Z,95.30
2022-08-03T07:35:00.142Z,95.20
2022-08-03T07:37:29.705Z,95.10
2022-08-03T07:39:57.222Z,94.90
2022-08-03T07:42:24.533Z,94.90
2022-08-03T07:44:51.762Z,94.80
2022-08-03T07:47:35.379Z,94.70
2022-08-03T07:50:04.581Z,94.60
2022-08-03T07:52:50.330Z,94.40
2022-08-03T07:55:23.230Z,94.40
2022-08-03T07:58:09.837Z,94.40
2022-08-03T08:00:37.120Z,94.20
2022-08-03T08:03:05.119Z,94.30
2022-08-03T08:05:32.630Z,94.30
2022-08-03T08:08:01.064Z,93.80
2022-08-03T08:10:28.932Z,93.30
2022-08-03T08:12:56.732Z,93.10
2022-08-03T08:15:24.356Z,93.10
2022-08-03T08:17:54.563Z,93.10
2022-08-03T08:20:30.572Z,92.90
2022-08-03T08:23:24.859Z,92.80
2022-08-03T08:25:53.425Z,92.60
2022-08-03T08:28:32.755Z,92.40
2022-08-03T08:31:01.663Z,92.40
2022-08-03T08:33:37.615Z,92.30
2022-08-03T08:36:16.270Z,92.10
2022-08-03T08:38:44.914Z,92.20
2022-08-03T08:41:13.922Z,91.90
2022-08-03T08:43:42.237Z,91.40
2022-08-03T08:46:23.128Z,91.20
2022-08-03T08:48:53.176Z,91.00
2022-08-03T08:51:22.348Z,90.90
2022-08-03T08:53:53.909Z,90.90
2022-08-03T08:56:25.321Z,90.70
2022-08-03T08:58:56.300Z,90.50
2022-08-03T09:01:24.226Z,90.20
2022-08-03T09:03:53.372Z,89.80
2022-08-03T09:06:21.889Z,89.30
2022-08-03T09:08:49.447Z,88.60
2022-08-03T09:11:20.374Z,88.50
2022-08-03T09:14:07.667Z,87.70
2022-08-03T09:16:34.897Z,87.70
2022-08-03T09:19:16.411Z,87.30
2022-08-03T09:21:43.635Z,87.00
2022-08-03T09:24:25.700Z,87.10
2022-08-03T09:27:01.810Z,86.80
2022-08-03T09:29:32.918Z,86.20
2022-08-03T09:32:04.744Z,85.50
2022-08-03T09:34:32.573Z,84.60
2022-08-03T09:36:59.832Z,84.00
2022-08-03T09:39:41.421Z,83.60
2022-08-03T09:42:15.672Z,83.60
2022-08-03T09:44:48.197Z,83.10
2022-08-03T09:47:33.252Z,81.80
2022-08-03T09:50:05.689Z,81.40
2022-08-03T09:52:51.989Z,81.30
2022-08-03T09:56:34.728Z,81.30
2022-08-03T09:58:14.240Z,80.10
2022-08-03T10:01:06.210Z,80.00
2022-08-03T10:04:02.738Z,80.00
2022-08-03T10:06:28.777Z,80.00
2022-08-03T10:09:14.382Z,79.10
2022-08-03T10:11:43.531Z,76.90
2022-08-03T10:14:18.869Z,76.40
2022-08-03T10:16:47.391Z,75.10
2022-08-03T10:19:15.606Z,75.10
2022-08-03T10:21:59.740Z,75.30
2022-08-03T10:24:30.172Z,75.50
2022-08-03T10:27:03.530Z,75.20
2022-08-03T10:29:38.652Z,74.80
2022-08-03T10:32:43.010Z,74.20
2022-08-03T10:35:19.502Z,73.90
2022-08-03T10:38:03.903Z,73.50
2022-08-03T10:40:48.141Z,73.40
2022-08-03T10:43:26.473Z,73.00
2022-08-03T10:45:54.256Z,73.00
2022-08-03T10:48:22.396Z,73.20
2022-08-03T10:50:50.502Z,72.40
2022-08-03T10:53:35.391Z,72.30
2022-08-03T10:56:35.776Z,72.70
2022-08-03T10:59:10.542Z,72.80
2022-08-03T11:02:00.533Z,72.30
2022-08-03T11:04:29.704Z,72.20
2022-08-03T11:07:16.247Z,72.40
2022-08-03T11:09:48.466Z,72.60
2022-08-03T11:12:21.880Z,72.50
2022-08-03T11:15:00.673Z,72.40
2022-08-03T11:17:28.223Z,72.10
2022-08-03T11:19:57.596Z,71.90
2022-08-03T11:22:45.923Z,72.00
2022-08-03T11:25:53.686Z,71.60
2022-08-03T11:28:29.094Z,70.80
2022-08-03T11:31:48.794Z,70.00
2022-08-03T11:34:15.716Z,69.90
2022-08-03T11:37:22.679Z,69.70
2022-08-03T11:39:52.939Z,69.30
2022-08-03T11:42:23.374Z,69.10
2022-08-03T11:44:51.771Z,69.10
2022-08-03T11:47:21.045Z,69.10
2022-08-03T11:49:49.207Z,68.30
2022-08-03T11:52:17.660Z,68.10
2022-08-03T11:54:45.030Z,69.60
2022-08-03T11:57:12.732Z,68.30
2022-08-03T11:59:40.268Z,68.60
2022-08-03T12:02:12.518Z,67.80
2022-08-03T12:05:00.576Z,67.20
2022-08-03T12:08:02.324Z,66.90
2022-08-03T12:10:17.067Z,66.70
2022-08-03T12:12:46.730Z,66.70
2022-08-03T12:15:14.162Z,66.20
2022-08-03T12:17:41.797Z,65.90
2022-08-03T12:20:10.382Z,66.30
2022-08-03T12:22:39.870Z,66.90
2022-08-03T12:25:08.871Z,66.50
2022-08-03T12:27:36.298Z,66.30
2022-08-03T12:30:04.249Z,65.90
2022-08-03T12:32:31.660Z,65.20
2022-08-03T12:35:01.315Z,64.80
2022-08-03T12:37:29.715Z,64.80
2022-08-03T12:40:06.729Z,64.60
2022-08-03T12:42:39.852Z,64.90
2022-08-03T12:45:27.131Z,65.10
2022-08-03T12:47:57.030Z,64.90
2022-08-03T12:50:25.504Z,64.20
2022-08-03T12:52:52.809Z,63.80
2022-08-03T12:55:22.782Z,63.60
2022-08-03T12:57:50.184Z,62.90
2022-08-03T13:00:21.500Z,62.70
2022-08-03T13:05:55.672Z,63.10
2022-08-03T13:08:24.783Z,61.90
2022-08-03T13:10:53.601Z,62.20
2022-08-03T13:13:39.525Z,61.50
2022-08-03T13:16:06.769Z,62.60
2022-08-03T13:18:34.017Z,60.90
2022-08-03T13:21:02.260Z,60.70
2022-08-03T13:23:29.676Z,60.40
2022-08-03T13:25:56.941Z,60.00
2022-08-03T13:28:24.163Z,59.80
2022-08-03T13:30:51.388Z,59.80
2022-08-03T13:33:18.681Z,58.80
2022-08-03T13:35:45.979Z,58.80
2022-08-03T13:38:13.308Z,58.50
2022-08-03T13:40:42.653Z,58.20
2022-08-03T13:43:13.356Z,58.20
2022-08-03T13:45:40.607Z,56.40
2022-08-03T13:48:07.872Z,56.20
2022-08-03T13:50:37.579Z,55.00
2022-08-03T13:53:07.111Z,53.00
2022-08-03T13:55:34.362Z,53.00
2022-08-03T13:58:07.303Z,52.20
2022-08-03T14:00:34.950Z,51.90
2022-08-03T14:03:13.314Z,52.30
2022-08-03T14:05:44.711Z,51.20
2022-08-03T14:08:12.479Z,50.90
2022-08-03T14:10:42.764Z,51.80
2022-08-03T14:13:12.080Z,52.30
2022-08-03T14:15:39.446Z,51.90
2022-08-03T14:18:15.616Z,51.90
2022-08-03T14:20:49.040Z,52.50
2022-08-03T14:23:18.966Z,51.50
2022-08-03T14:25:51.555Z,51.00
2022-08-03T14:28:24.325Z,51.10
2022-08-03T14:30:52.660Z,50.90
2022-08-03T14:33:20.391Z,50.50
2022-08-03T14:35:48.169Z,49.60
2022-08-03T14:38:15.655Z,49.30
2022-08-03T14:40:43.332Z,48.20
2022-08-03T14:43:11.098Z,48.40
2022-08-03T14:45:39.341Z,48.50
2022-08-03T14:50:28.636Z,48.40
2022-08-03T14:50:55.300Z,47.40
2022-08-03T14:53:23.215Z,47.80
2022-08-03T14:55:52.736Z,47.50
2022-08-03T14:58:22.700Z,46.90
2022-08-03T15:00:51.751Z,45.70
2022-08-03T15:03:23.323Z,45.60
2022-08-03T15:05:52.886Z,45.30
2022-08-03T15:08:20.771Z,44.30
2022-08-03T15:10:49.315Z,44.30
2022-08-03T15:13:17.762Z,44.20
2022-08-03T15:15:45.366Z,44.80
2022-08-03T15:18:12.643Z,44.00
2022-08-03T15:20:44.897Z,42.80
2022-08-03T15:23:15.157Z,42.70
2022-08-03T15:26:31.751Z,42.70
2022-08-03T15:28:31.912Z,42.80
2022-08-03T15:30:59.462Z,42.70
2022-08-03T15:33:26.825Z,42.20
2022-08-03T15:35:54.450Z,42.50
2022-08-03T15:38:26.102Z,42.30
2022-08-03T15:40:54.995Z,42.20
2022-08-03T15:43:23.189Z,42.30
2022-08-03T15:46:06.841Z,42.50
2022-08-03T15:48:38.454Z,42.60
2022-08-03T15:51:06.240Z,42.80
2022-08-03T15:53:33.744Z,42.80
2022-08-03T15:56:03.308Z,42.50
2022-08-03T15:59:10.194Z,42.30
2022-08-03T16:01:21.444Z,41.90
2022-08-03T16:03:48.914Z,42.10
2022-08-03T16:06:16.174Z,42.30
2022-08-03T16:08:43.463Z,42.70
2022-08-03T16:11:11.372Z,43.20
2022-08-03T16:14:11.960Z,43.20
2022-08-03T16:16:26.202Z,43.10
2022-08-03T16:18:53.449Z,43.50
2022-08-03T16:21:21.818Z,43.70
2022-08-03T16:23:51.870Z,44.00
2022-08-03T16:26:19.574Z,44.20
2022-08-03T16:28:46.816Z,44.00
2022-08-03T16:31:14.182Z,44.00
2022-08-03T16:33:41.413Z,43.90
2022-08-03T16:36:08.660Z,44.10
2022-08-03T16:38:36.651Z,44.40
2022-08-03T16:41:04.696Z,44.80
2022-08-03T16:43:34.645Z,45.30
2022-08-03T16:46:02.004Z,45.70
2022-08-03T16:48:29.321Z,45.90
2022-08-03T16:50:56.589Z,46.30
2022-08-03T16:53:33.152Z,46.90
2022-08-03T16:56:11.222Z,47.50
2022-08-03T16:58:42.083Z,47.80
2022-08-03T17:01:24.166Z,47.90
2022-08-03T17:04:01.393Z,48.00
2022-08-03T17:06:36.342Z,48.40
2022-08-03T17:09:18.867Z,49.00
2022-08-03T17:11:49.959Z,49.60
2022-08-03T17:14:22.873Z,49.60
2022-08-03T17:17:01.783Z,49.60
2022-08-03T17:19:30.813Z,50.20
2022-08-03T17:22:08.772Z,50.40
2022-08-03T17:24:40.944Z,50.70
2022-08-03T17:28:41.834Z,50.80
2022-08-03T17:30:08.755Z,51.00
2022-08-03T17:32:42.784Z,51.30
2022-08-03T17:35:21.059Z,52.00
2022-08-03T17:37:58.263Z,51.40
2022-08-03T17:40:31.579Z,51.60
2022-08-03T17:43:00.671Z,52.10
2022-08-03T17:45:52.190Z,52.10
2022-08-03T17:48:18.746Z,52.50
2022-08-03T17:51:07.590Z,52.40
2022-08-03T17:54:20.434Z,53.40
2022-08-03T17:56:56.486Z,53.00
2022-08-03T17:59:50.911Z,53.20
2022-08-03T18:02:47.442Z,54.40
2022-08-03T18:05:21.954Z,54.00
2022-08-03T18:08:02.365Z,54.10
2022-08-03T18:10:35.318Z,54.20
2022-08-03T18:13:24.540Z,54.10
2022-08-03T18:16:05.834Z,54.40
2022-08-03T18:18:56.892Z,54.60
2022-08-03T18:21:28.136Z,55.00
2022-08-03T18:24:18.555Z,55.10
2022-08-03T18:26:48.419Z,55.10
2022-08-03T18:29:15.914Z,55.30
2022-08-03T18:32:03.107Z,55.40
2022-08-03T18:34:34.538Z,55.50
2022-08-03T18:37:07.468Z,55.50
2022-08-03T18:39:49.501Z,55.60
2022-08-03T18:42:19.749Z,55.90
2022-08-03T18:44:54.048Z,55.90
2022-08-03T18:47:51.587Z,56.10
2022-08-03T18:50:39.683Z,56.20
2022-08-03T18:54:03.622Z,56.50
2022-08-03T18:56:43.179Z,56.80
2022-08-03T18:59:30.262Z,57.10
2022-08-03T19:02:14.372Z,57.20
2022-08-03T19:04:53.281Z,57.20
2022-08-03T19:07:26.529Z,57.40
2022-08-03T19:09:59.808Z,57.40
2022-08-03T19:12:51.586Z,57.40
2022-08-03T19:15:21.192Z,57.70
2022-08-03T19:18:10.457Z,58.10
2022-08-03T19:20:38.207Z,58.00
2022-08-03T19:23:06.680Z,58.20
2022-08-03T19:25:39.242Z,58.40
2022-08-03T19:28:08.647Z,58.60
2022-08-03T19:30:38.827Z,58.80
2022-08-03T19:33:15.186Z,58.80
2022-08-03T19:35:55.321Z,58.90
2022-08-03T19:38:28.360Z,58.90
2022-08-03T19:40:58.457Z,59.00
2022-08-03T19:43:49.452Z,59.10
2022-08-03T19:46:31.387Z,59.20
2022-08-03T19:49:14.999Z,59.30
2022-08-03T19:52:02.538Z,59.40
2022-08-03T19:54:39.661Z,59.60
2022-08-03T19:57:27.047Z,59.90
2022-08-03T19:59:56.406Z,59.90
2022-08-03T20:02:25.571Z,60.00
2022-08-03T20:04:53.215Z,60.40
2022-08-03T20:07:22.705Z,60.60
2022-08-03T20:09:54.432Z,60.80
2022-08-03T20:12:26.455Z,60.70
2022-08-03T20:14:57.283Z,61.00
2022-08-03T20:17:54.071Z,61.40
2022-08-03T20:20:13.468Z,61.40
2022-08-03T20:22:48.155Z,61.90
2022-08-03T20:25:21.117Z,62.00
2022-08-03T20:28:07.333Z,62.20
2022-08-03T20:30:43.349Z,62.40
2022-08-03T20:33:11.279Z,62.70
2022-08-03T20:35:38.521Z,62.70
2022-08-03T20:38:09.292Z,62.80
2022-08-03T20:40:38.162Z,63.30
2022-08-03T20:43:09.247Z,63.10
2022-08-03T20:45:59.551Z,63.60
2022-08-03T20:48:26.779Z,63.80
2022-08-03T20:50:55.361Z,63.90
2022-08-03T20:53:57.144Z,64.00
2022-08-03T20:56:10.187Z,64.20
2022-08-03T20:58:41.546Z,64.40
2022-08-03T21:01:09.181Z,64.40
2022-08-03T21:03:40.928Z,64.60
2022-08-03T21:06:27.365Z,64.70
2022-08-03T21:09:05.135Z,64.90
2022-08-03T21:11:43.338Z,65.00
2022-08-03T21:14:24.044Z,65.10
2022-08-03T21:16:52.900Z,65.30
2022-08-03T21:19:21.638Z,65.30
2022-08-03T21:21:50.159Z,65.40
2022-08-03T21:24:19.589Z,65.60
2022-08-03T21:26:48.979Z,65.50
2022-08-03T21:29:16.824Z,65.70
2022-08-03T21:31:44.368Z,65.70
2022-08-03T21:34:11.624Z,65.90
2022-08-03T21:36:38.951Z,66.10
2022-08-03T21:39:08.910Z,66.20
2022-08-03T21:41:38.257Z,66.40
2022-08-03T21:44:06.440Z,66.40
2022-08-03T21:46:39.759Z,66.70
2022-08-03T21:50:06.776Z,67.10
2022-08-03T21:52:03.969Z,67.20
2022-08-03T21:54:40.787Z,67.20
2022-08-03T21:57:34.866Z,67.30
2022-08-03T22:00:17.242Z,67.50
2022-08-03T22:02:53.017Z,67.70
2022-08-03T22:05:29.183Z,67.90
2022-08-03T22:08:12.661Z,68.00
2022-08-03T22:10:40.439Z,68.20
2022-08-03T22:13:07.772Z,68.40
2022-08-03T22:15:35.259Z,68.50
2022-08-03T22:18:03.646Z,68.60
2022-08-03T22:20:31.321Z,68.70
2022-08-03T22:23:02.734Z,68.80
2022-08-03T22:25:35.775Z,69.10
2022-08-03T22:28:07.287Z,69.20
2022-08-03T22:30:35.459Z,69.30
2022-08-03T22:33:05.529Z,70.10
2022-08-03T22:35:49.238Z,69.40
2022-08-03T22:38:19.459Z,69.60
2022-08-03T22:40:48.951Z,69.70
2022-08-03T22:43:16.807Z,69.90
2022-08-03T22:46:10.405Z,70.00
2022-08-03T22:48:41.201Z,70.10
2022-08-03T22:51:09.878Z,70.30
2022-08-03T22:53:38.924Z,70.60
2022-08-03T22:56:06.982Z,70.70
2022-08-03T22:58:34.235Z,71.00
2022-08-03T23:01:08.574Z,71.10
2022-08-03T23:04:00.805Z,71.40
2022-08-03T23:06:36.908Z,71.70
2022-08-03T23:09:10.267Z,72.00
2022-08-03T23:11:45.607Z,72.00
2022-08-03T23:14:16.049Z,72.20
2022-08-03T23:16:44.411Z,72.30
2022-08-03T23:19:17.170Z,72.30
2022-08-03T23:22:02.226Z,72.40
2022-08-03T23:24:35.642Z,72.50
2022-08-03T23:27:07.555Z,72.80
2022-08-03T23:29:36.711Z,72.80
2022-08-03T23:32:05.587Z,72.90
2022-08-03T23:34:52.166Z,72.90
2022-08-03T23:37:22.543Z,72.90
2022-08-03T23:39:50.020Z,73.20
2022-08-03T23:42:19.489Z,73.40
2022-08-03T23:44:47.132Z,73.50
2022-08-03T23:47:14.372Z,73.60
2022-08-03T23:49:41.658Z,73.70
2022-08-03T23:52:33.287Z,73.70
2022-08-03T23:55:16.525Z,74.00
2022-08-03T23:57:52.152Z,74.10
